EAN961 DNAA-DNYO
Flight info
| Callsign | EAN961 |
|---|---|
| Flight time | 1h 23m |
| Altitude | 23000 |
| Route | ABC DCT USKIP UJ332 JOS UB736 RUVKO |
| Aircraft | PC12/L-SDFGRWY/S |
Departure
| Time | 2026-04-22 22:14 |
|---|---|
| Airport | Nnamdi Azikiwe International Airport (DNAA) |
Arrival
| Time | 2026-04-22 23:37 |
|---|---|
| Airport | Yola Airport (DNYO) |
| Time | Latitude | Longitude | Altitude | Speed | Heading |
|---|---|---|---|---|---|
| 2026-04-22 22:10 | 9.01301 | 7.27250 | 1125 ft | 0 kts | 213° |
| 2026-04-22 22:12 | 9.01284 | 7.27224 | 1119 ft | 13 kts | 256° |
| 2026-04-22 22:13 | 9.01352 | 7.27166 | 1117 ft | 16 kts | 27° |
| 2026-04-22 22:13 | 9.01441 | 7.27207 | 1124 ft | 26 kts | 353° |
| 2026-04-22 22:13 | 9.01581 | 7.27029 | 1124 ft | 39 kts | 289° |
| 2026-04-22 22:13 | 9.01378 | 7.26811 | 1123 ft | 66 kts | 214° |
| 2026-04-22 22:14 | 9.00832 | 7.26425 | 1106 ft | 121 kts | 212° |
| 2026-04-22 22:14 | 9.00082 | 7.25887 | 1377 ft | 141 kts | 216° |
| 2026-04-22 22:14 | 8.99247 | 7.25255 | 1776 ft | 162 kts | 218° |
| 2026-04-22 22:14 | 8.98314 | 7.24512 | 2274 ft | 175 kts | 222° |
| 2026-04-22 22:15 | 8.97251 | 7.23501 | 3657 ft | 144 kts | 241° |
| 2026-04-22 22:15 | 8.97091 | 7.22858 | 4201 ft | 142 kts | 275° |
| 2026-04-22 22:15 | 8.97607 | 7.22030 | 4928 ft | 146 kts | 329° |
| 2026-04-22 22:15 | 8.98579 | 7.21893 | 5714 ft | 143 kts | 2° |
| 2026-04-22 22:16 | 8.99541 | 7.22079 | 6497 ft | 140 kts | 19° |
| 2026-04-22 22:16 | 9.00382 | 7.22585 | 7219 ft | 142 kts | 35° |
| 2026-04-22 22:16 | 9.01165 | 7.23187 | 7966 ft | 141 kts | 34° |
| 2026-04-22 22:16 | 9.01949 | 7.23776 | 8707 ft | 141 kts | 35° |
| 2026-04-22 22:17 | 9.02714 | 7.24393 | 9450 ft | 143 kts | 49° |
| 2026-04-22 22:17 | 9.03148 | 7.25304 | 10159 ft | 145 kts | 63° |
| 2026-04-22 22:17 | 9.03572 | 7.26240 | 10792 ft | 148 kts | 61° |
| 2026-04-22 22:17 | 9.04036 | 7.27168 | 11423 ft | 151 kts | 61° |
| 2026-04-22 22:18 | 9.04524 | 7.28126 | 12074 ft | 155 kts | 62° |
| 2026-04-22 22:18 | 9.05026 | 7.29106 | 12716 ft | 158 kts | 63° |
| 2026-04-22 22:18 | 9.05541 | 7.30105 | 13364 ft | 162 kts | 63° |
| 2026-04-22 22:18 | 9.06065 | 7.31127 | 13952 ft | 164 kts | 64° |
| 2026-04-22 22:19 | 9.06595 | 7.32160 | 14525 ft | 167 kts | 64° |
| 2026-04-22 22:19 | 9.07138 | 7.33213 | 15090 ft | 170 kts | 63° |
| 2026-04-22 22:19 | 9.07681 | 7.34267 | 15665 ft | 172 kts | 63° |
| 2026-04-22 22:19 | 9.08239 | 7.35355 | 16239 ft | 175 kts | 63° |
| 2026-04-22 22:20 | 9.08804 | 7.36456 | 16830 ft | 178 kts | 63° |
| 2026-04-22 22:20 | 9.09378 | 7.37573 | 17417 ft | 180 kts | 63° |
| 2026-04-22 22:20 | 9.09961 | 7.38707 | 17809 ft | 187 kts | 63° |
| 2026-04-22 22:20 | 9.10610 | 7.39972 | 17874 ft | 216 kts | 63° |
| 2026-04-22 22:21 | 9.11338 | 7.41396 | 17876 ft | 238 kts | 63° |
| 2026-04-22 22:21 | 9.12123 | 7.42927 | 17877 ft | 251 kts | 63° |
| 2026-04-22 22:21 | 9.12942 | 7.44519 | 17873 ft | 258 kts | 63° |
| 2026-04-22 22:21 | 9.13765 | 7.46121 | 17869 ft | 261 kts | 63° |
| 2026-04-22 22:22 | 9.14605 | 7.47756 | 17872 ft | 262 kts | 63° |
| 2026-04-22 22:22 | 9.15448 | 7.49398 | 17869 ft | 263 kts | 63° |
| 2026-04-22 22:22 | 9.16290 | 7.51041 | 17872 ft | 263 kts | 63° |
| 2026-04-22 22:22 | 9.17134 | 7.52684 | 17866 ft | 263 kts | 63° |
| 2026-04-22 22:23 | 9.17981 | 7.54333 | 17872 ft | 263 kts | 63° |
| 2026-04-22 22:23 | 9.18822 | 7.55973 | 17877 ft | 263 kts | 63° |
| 2026-04-22 22:23 | 9.19669 | 7.57624 | 17866 ft | 263 kts | 63° |
| 2026-04-22 22:23 | 9.20501 | 7.59245 | 17871 ft | 263 kts | 63° |
| 2026-04-22 22:24 | 9.21344 | 7.60891 | 17871 ft | 263 kts | 63° |
| 2026-04-22 22:24 | 9.22188 | 7.62536 | 17874 ft | 263 kts | 63° |
| 2026-04-22 22:24 | 9.23032 | 7.64181 | 17873 ft | 263 kts | 63° |
| 2026-04-22 22:24 | 9.23875 | 7.65825 | 17874 ft | 263 kts | 63° |
| 2026-04-22 22:25 | 9.24720 | 7.67474 | 17868 ft | 263 kts | 63° |
| 2026-04-22 22:25 | 9.25555 | 7.69103 | 17870 ft | 264 kts | 63° |
| 2026-04-22 22:25 | 9.26400 | 7.70751 | 17874 ft | 264 kts | 63° |
| 2026-04-22 22:25 | 9.27246 | 7.72403 | 17872 ft | 264 kts | 63° |
| 2026-04-22 22:26 | 9.28092 | 7.74052 | 17872 ft | 264 kts | 63° |
| 2026-04-22 22:26 | 9.28938 | 7.75705 | 17874 ft | 264 kts | 63° |
| 2026-04-22 22:26 | 9.29787 | 7.77364 | 17872 ft | 264 kts | 63° |
| 2026-04-22 22:26 | 9.30620 | 7.78989 | 17873 ft | 264 kts | 63° |
| 2026-04-22 22:27 | 9.31465 | 7.80638 | 17873 ft | 264 kts | 63° |
| 2026-04-22 22:27 | 9.32313 | 7.82295 | 17873 ft | 265 kts | 63° |
| 2026-04-22 22:27 | 9.33161 | 7.83952 | 17880 ft | 265 kts | 63° |
| 2026-04-22 22:27 | 9.34010 | 7.85612 | 17880 ft | 266 kts | 63° |
| 2026-04-22 22:28 | 9.34861 | 7.87274 | 17876 ft | 266 kts | 63° |
| 2026-04-22 22:28 | 9.35713 | 7.88938 | 17880 ft | 266 kts | 63° |
| 2026-04-22 22:28 | 9.36566 | 7.90604 | 17880 ft | 265 kts | 63° |
| 2026-04-22 22:28 | 9.37415 | 7.92265 | 17883 ft | 266 kts | 63° |
| 2026-04-22 22:29 | 9.38256 | 7.93910 | 17881 ft | 266 kts | 63° |
| 2026-04-22 22:29 | 9.39107 | 7.95574 | 17883 ft | 266 kts | 63° |
| 2026-04-22 22:29 | 9.39958 | 7.97237 | 17882 ft | 266 kts | 63° |
| 2026-04-22 22:29 | 9.40810 | 7.98903 | 17886 ft | 266 kts | 63° |
| 2026-04-22 22:30 | 9.41662 | 8.00570 | 17883 ft | 266 kts | 63° |
| 2026-04-22 22:30 | 9.42514 | 8.02236 | 17884 ft | 266 kts | 63° |
| 2026-04-22 22:30 | 9.43365 | 8.03902 | 17887 ft | 266 kts | 63° |
| 2026-04-22 22:30 | 9.44205 | 8.05547 | 17888 ft | 266 kts | 63° |
| 2026-04-22 22:31 | 9.45055 | 8.07211 | 17886 ft | 266 kts | 63° |
| 2026-04-22 22:31 | 9.45906 | 8.08876 | 17885 ft | 266 kts | 63° |
| 2026-04-22 22:31 | 9.46760 | 8.10547 | 17889 ft | 266 kts | 63° |
| 2026-04-22 22:31 | 9.47610 | 8.12212 | 17889 ft | 266 kts | 63° |
| 2026-04-22 22:32 | 9.48461 | 8.13879 | 17889 ft | 266 kts | 63° |
| 2026-04-22 22:32 | 9.49312 | 8.15545 | 17890 ft | 266 kts | 63° |
| 2026-04-22 22:32 | 9.50163 | 8.17213 | 17893 ft | 266 kts | 63° |
| 2026-04-22 22:32 | 9.51013 | 8.18879 | 17890 ft | 266 kts | 63° |
| 2026-04-22 22:33 | 9.51864 | 8.20545 | 17894 ft | 266 kts | 63° |
| 2026-04-22 22:33 | 9.52556 | 8.22257 | 17885 ft | 266 kts | 76° |
| 2026-04-22 22:33 | 9.52904 | 8.24095 | 17887 ft | 266 kts | 79° |
| 2026-04-22 22:33 | 9.53251 | 8.25941 | 17890 ft | 266 kts | 79° |
| 2026-04-22 22:34 | 9.53606 | 8.27783 | 17898 ft | 266 kts | 79° |
| 2026-04-22 22:34 | 9.53954 | 8.29627 | 17900 ft | 266 kts | 79° |
| 2026-04-22 22:34 | 9.54300 | 8.31472 | 17897 ft | 266 kts | 79° |
| 2026-04-22 22:34 | 9.54647 | 8.33314 | 17902 ft | 267 kts | 79° |
| 2026-04-22 22:35 | 9.54997 | 8.35159 | 17903 ft | 266 kts | 79° |
| 2026-04-22 22:35 | 9.55346 | 8.37006 | 17900 ft | 266 kts | 79° |
| 2026-04-22 22:35 | 9.55692 | 8.38848 | 17904 ft | 266 kts | 79° |
| 2026-04-22 22:35 | 9.56038 | 8.40690 | 17908 ft | 266 kts | 79° |
| 2026-04-22 22:36 | 9.56386 | 8.42536 | 17904 ft | 266 kts | 79° |
| 2026-04-22 22:36 | 9.56733 | 8.44376 | 17908 ft | 266 kts | 79° |
| 2026-04-22 22:36 | 9.57076 | 8.46194 | 17914 ft | 266 kts | 79° |
| 2026-04-22 22:36 | 9.57423 | 8.48039 | 17914 ft | 266 kts | 79° |
| 2026-04-22 22:37 | 9.57769 | 8.49881 | 17914 ft | 266 kts | 79° |
| 2026-04-22 22:37 | 9.58116 | 8.51724 | 17919 ft | 266 kts | 79° |
| 2026-04-22 22:37 | 9.58463 | 8.53563 | 17920 ft | 266 kts | 79° |
| 2026-04-22 22:37 | 9.58811 | 8.55418 | 17923 ft | 266 kts | 79° |
| 2026-04-22 22:38 | 9.59152 | 8.57233 | 17922 ft | 266 kts | 79° |
| 2026-04-22 22:38 | 9.59498 | 8.59078 | 17924 ft | 266 kts | 79° |
| 2026-04-22 22:38 | 9.59845 | 8.60919 | 17928 ft | 266 kts | 79° |
| 2026-04-22 22:38 | 9.60191 | 8.62761 | 17927 ft | 266 kts | 79° |
| 2026-04-22 22:39 | 9.60537 | 8.64609 | 17930 ft | 266 kts | 79° |
| 2026-04-22 22:39 | 9.60882 | 8.66448 | 17934 ft | 266 kts | 79° |
| 2026-04-22 22:39 | 9.61228 | 8.68292 | 17934 ft | 266 kts | 79° |
| 2026-04-22 22:39 | 9.61570 | 8.70108 | 17936 ft | 266 kts | 79° |
| 2026-04-22 22:40 | 9.61914 | 8.71949 | 17939 ft | 265 kts | 79° |
| 2026-04-22 22:40 | 9.62258 | 8.73787 | 17939 ft | 265 kts | 79° |
| 2026-04-22 22:40 | 9.62603 | 8.75624 | 17943 ft | 265 kts | 79° |
| 2026-04-22 22:40 | 9.62947 | 8.77461 | 17941 ft | 265 kts | 79° |
| 2026-04-22 22:41 | 9.63292 | 8.79300 | 17942 ft | 265 kts | 79° |
| 2026-04-22 22:41 | 9.63635 | 8.81135 | 17944 ft | 265 kts | 79° |
| 2026-04-22 22:41 | 9.63979 | 8.82970 | 17948 ft | 265 kts | 79° |
| 2026-04-22 22:41 | 9.64192 | 8.84816 | 17937 ft | 265 kts | 91° |
| 2026-04-22 22:42 | 9.64073 | 8.86676 | 17940 ft | 264 kts | 94° |
| 2026-04-22 22:42 | 9.63961 | 8.88537 | 17940 ft | 265 kts | 93° |
| 2026-04-22 22:42 | 9.63857 | 8.90399 | 17945 ft | 265 kts | 93° |
| 2026-04-22 22:42 | 9.63745 | 8.92266 | 17947 ft | 265 kts | 93° |
| 2026-04-22 22:43 | 9.63630 | 8.94133 | 17949 ft | 265 kts | 93° |
| 2026-04-22 22:43 | 9.63518 | 8.96002 | 17950 ft | 265 kts | 93° |
| 2026-04-22 22:43 | 9.63406 | 8.97873 | 17950 ft | 265 kts | 93° |
| 2026-04-22 22:43 | 9.63293 | 8.99736 | 17951 ft | 266 kts | 93° |
| 2026-04-22 22:44 | 9.63181 | 9.01606 | 17947 ft | 265 kts | 93° |
| 2026-04-22 22:44 | 9.63069 | 9.03452 | 17947 ft | 266 kts | 93° |
| 2026-04-22 22:44 | 9.62956 | 9.05319 | 17945 ft | 266 kts | 93° |
| 2026-04-22 22:44 | 9.62843 | 9.07193 | 17944 ft | 266 kts | 93° |
| 2026-04-22 22:45 | 9.62730 | 9.09063 | 17942 ft | 266 kts | 93° |
| 2026-04-22 22:45 | 9.62616 | 9.10934 | 17939 ft | 266 kts | 93° |
| 2026-04-22 22:45 | 9.62503 | 9.12803 | 17937 ft | 266 kts | 93° |
| 2026-04-22 22:45 | 9.62389 | 9.14674 | 17938 ft | 266 kts | 93° |
| 2026-04-22 22:46 | 9.62275 | 9.16546 | 17935 ft | 266 kts | 93° |
| 2026-04-22 22:46 | 9.62161 | 9.18414 | 17933 ft | 266 kts | 93° |
| 2026-04-22 22:46 | 9.62048 | 9.20287 | 17930 ft | 266 kts | 93° |
| 2026-04-22 22:46 | 9.61935 | 9.22131 | 17927 ft | 266 kts | 93° |
| 2026-04-22 22:47 | 9.61821 | 9.23998 | 17931 ft | 265 kts | 93° |
| 2026-04-22 22:47 | 9.61707 | 9.25866 | 17922 ft | 265 kts | 93° |
| 2026-04-22 22:47 | 9.61593 | 9.27733 | 17922 ft | 265 kts | 93° |
| 2026-04-22 22:47 | 9.61479 | 9.29599 | 17920 ft | 266 kts | 93° |
| 2026-04-22 22:48 | 9.61365 | 9.31467 | 17916 ft | 266 kts | 93° |
| 2026-04-22 22:48 | 9.61250 | 9.33338 | 17914 ft | 266 kts | 93° |
| 2026-04-22 22:48 | 9.61135 | 9.35212 | 17911 ft | 266 kts | 93° |
| 2026-04-22 22:48 | 9.61021 | 9.37081 | 17905 ft | 266 kts | 93° |
| 2026-04-22 22:49 | 9.60904 | 9.38957 | 17901 ft | 267 kts | 94° |
| 2026-04-22 22:49 | 9.60784 | 9.40832 | 17903 ft | 266 kts | 94° |
| 2026-04-22 22:49 | 9.60665 | 9.42705 | 17896 ft | 266 kts | 94° |
| 2026-04-22 22:49 | 9.60547 | 9.44556 | 17892 ft | 266 kts | 94° |
| 2026-04-22 22:50 | 9.60429 | 9.46430 | 17890 ft | 267 kts | 93° |
| 2026-04-22 22:50 | 9.60310 | 9.48308 | 17888 ft | 266 kts | 94° |
| 2026-04-22 22:50 | 9.60191 | 9.50182 | 17888 ft | 266 kts | 93° |
| 2026-04-22 22:50 | 9.60072 | 9.52056 | 17882 ft | 266 kts | 93° |
| 2026-04-22 22:51 | 9.59953 | 9.53929 | 17882 ft | 266 kts | 94° |
| 2026-04-22 22:51 | 9.59834 | 9.55804 | 17880 ft | 266 kts | 94° |
| 2026-04-22 22:51 | 9.59714 | 9.57672 | 17875 ft | 266 kts | 94° |
| 2026-04-22 22:51 | 9.59595 | 9.59546 | 17873 ft | 266 kts | 94° |
| 2026-04-22 22:52 | 9.59475 | 9.61417 | 17868 ft | 266 kts | 94° |
| 2026-04-22 22:52 | 9.59357 | 9.63268 | 17865 ft | 266 kts | 94° |
| 2026-04-22 22:52 | 9.59238 | 9.65140 | 17866 ft | 266 kts | 94° |
| 2026-04-22 22:52 | 9.59118 | 9.67015 | 17861 ft | 266 kts | 94° |
| 2026-04-22 22:53 | 9.58998 | 9.68885 | 17863 ft | 266 kts | 94° |
| 2026-04-22 22:53 | 9.58877 | 9.70760 | 17861 ft | 266 kts | 94° |
| 2026-04-22 22:53 | 9.58758 | 9.72630 | 17859 ft | 266 kts | 94° |
| 2026-04-22 22:53 | 9.58638 | 9.74499 | 17851 ft | 266 kts | 94° |
| 2026-04-22 22:54 | 9.58517 | 9.76374 | 17854 ft | 266 kts | 94° |
| 2026-04-22 22:54 | 9.58397 | 9.78249 | 17852 ft | 266 kts | 94° |
| 2026-04-22 22:54 | 9.58276 | 9.80122 | 17851 ft | 267 kts | 94° |
| 2026-04-22 22:54 | 9.58155 | 9.81997 | 17849 ft | 267 kts | 94° |
| 2026-04-22 22:55 | 9.58035 | 9.83874 | 17846 ft | 267 kts | 94° |
| 2026-04-22 22:55 | 9.57913 | 9.85754 | 17844 ft | 267 kts | 94° |
| 2026-04-22 22:55 | 9.57672 | 9.89490 | 17841 ft | 268 kts | 94° |
| 2026-04-22 22:56 | 9.57550 | 9.91376 | 17841 ft | 268 kts | 94° |
| 2026-04-22 22:56 | 9.57428 | 9.93258 | 17840 ft | 268 kts | 94° |
| 2026-04-22 22:56 | 9.57306 | 9.95142 | 17839 ft | 268 kts | 94° |
| 2026-04-22 22:56 | 9.57183 | 9.97028 | 17838 ft | 268 kts | 94° |
| 2026-04-22 22:57 | 9.57061 | 9.98914 | 17833 ft | 268 kts | 94° |
| 2026-04-22 22:57 | 9.56939 | 10.00799 | 17837 ft | 268 kts | 94° |
| 2026-04-22 22:57 | 9.56816 | 10.02687 | 17834 ft | 268 kts | 94° |
| 2026-04-22 22:57 | 9.56693 | 10.04574 | 17831 ft | 269 kts | 94° |
| 2026-04-22 22:58 | 9.56570 | 10.06464 | 17829 ft | 269 kts | 94° |
| 2026-04-22 22:58 | 9.56447 | 10.08353 | 17828 ft | 269 kts | 94° |
| 2026-04-22 22:58 | 9.56324 | 10.10243 | 17829 ft | 269 kts | 94° |
| 2026-04-22 22:58 | 9.56200 | 10.12132 | 17828 ft | 269 kts | 94° |
| 2026-04-22 22:59 | 9.56078 | 10.14003 | 17826 ft | 269 kts | 94° |
| 2026-04-22 22:59 | 9.55955 | 10.15894 | 17826 ft | 268 kts | 94° |
| 2026-04-22 22:59 | 9.55831 | 10.17780 | 17818 ft | 268 kts | 94° |
| 2026-04-22 22:59 | 9.55707 | 10.19668 | 17821 ft | 268 kts | 94° |
| 2026-04-22 23:00 | 9.55584 | 10.21558 | 17825 ft | 268 kts | 94° |
| 2026-04-22 23:00 | 9.55460 | 10.23441 | 17817 ft | 268 kts | 94° |
| 2026-04-22 23:00 | 9.55337 | 10.25328 | 17821 ft | 268 kts | 94° |
| 2026-04-22 23:00 | 9.55213 | 10.27194 | 17819 ft | 268 kts | 94° |
| 2026-04-22 23:01 | 9.55089 | 10.29082 | 17810 ft | 268 kts | 94° |
| 2026-04-22 23:01 | 9.54965 | 10.30968 | 17812 ft | 268 kts | 94° |
| 2026-04-22 23:01 | 9.54842 | 10.32850 | 17809 ft | 268 kts | 94° |
| 2026-04-22 23:01 | 9.54717 | 10.34738 | 17809 ft | 268 kts | 94° |
| 2026-04-22 23:02 | 9.54593 | 10.36619 | 17805 ft | 268 kts | 94° |
| 2026-04-22 23:02 | 9.54469 | 10.38498 | 17808 ft | 267 kts | 94° |
| 2026-04-22 23:02 | 9.54345 | 10.40376 | 17812 ft | 267 kts | 94° |
| 2026-04-22 23:02 | 9.54262 | 10.41620 | 17811 ft | 267 kts | 94° |
| 2026-04-22 23:03 | 9.54096 | 10.44132 | 17812 ft | 267 kts | 94° |
| 2026-04-22 23:03 | 9.54014 | 10.45376 | 17807 ft | 267 kts | 94° |
| 2026-04-22 23:03 | 9.53889 | 10.47252 | 17812 ft | 267 kts | 94° |
| 2026-04-22 23:03 | 9.53764 | 10.49132 | 17807 ft | 267 kts | 94° |
| 2026-04-22 23:04 | 9.53640 | 10.51008 | 17807 ft | 267 kts | 94° |
| 2026-04-22 23:04 | 9.53515 | 10.52887 | 17806 ft | 267 kts | 94° |
| 2026-04-22 23:04 | 9.53390 | 10.54763 | 17810 ft | 267 kts | 94° |
| 2026-04-22 23:04 | 9.53266 | 10.56637 | 17803 ft | 267 kts | 94° |
| 2026-04-22 23:05 | 9.53141 | 10.58513 | 17806 ft | 266 kts | 94° |
| 2026-04-22 23:05 | 9.53015 | 10.60387 | 17804 ft | 266 kts | 94° |
| 2026-04-22 23:05 | 9.52892 | 10.62236 | 17802 ft | 266 kts | 94° |
| 2026-04-22 23:05 | 9.52768 | 10.64103 | 17805 ft | 266 kts | 94° |
| 2026-04-22 23:06 | 9.52643 | 10.65972 | 17805 ft | 265 kts | 94° |
| 2026-04-22 23:06 | 9.52518 | 10.67837 | 17807 ft | 265 kts | 94° |
| 2026-04-22 23:06 | 9.52393 | 10.69704 | 17807 ft | 265 kts | 94° |
| 2026-04-22 23:06 | 9.52268 | 10.71569 | 17806 ft | 265 kts | 94° |
| 2026-04-22 23:07 | 9.52143 | 10.73431 | 17805 ft | 265 kts | 94° |
| 2026-04-22 23:07 | 9.52018 | 10.75295 | 17808 ft | 265 kts | 94° |
| 2026-04-22 23:07 | 9.51893 | 10.77155 | 17807 ft | 265 kts | 94° |
| 2026-04-22 23:07 | 9.51768 | 10.79015 | 17808 ft | 265 kts | 94° |
| 2026-04-22 23:08 | 9.51643 | 10.80874 | 17810 ft | 265 kts | 94° |
| 2026-04-22 23:08 | 9.51518 | 10.82735 | 17805 ft | 264 kts | 93° |
| 2026-04-22 23:08 | 9.51393 | 10.84595 | 17804 ft | 264 kts | 93° |
| 2026-04-22 23:08 | 9.51267 | 10.86452 | 17806 ft | 264 kts | 94° |
| 2026-04-22 23:09 | 9.51143 | 10.88284 | 17805 ft | 264 kts | 94° |
| 2026-04-22 23:09 | 9.51019 | 10.90134 | 17800 ft | 263 kts | 93° |
| 2026-04-22 23:09 | 9.50894 | 10.91986 | 17810 ft | 263 kts | 93° |
| 2026-04-22 23:09 | 9.50768 | 10.93844 | 17810 ft | 263 kts | 93° |
| 2026-04-22 23:10 | 9.50643 | 10.95698 | 17811 ft | 263 kts | 94° |
| 2026-04-22 23:10 | 9.50518 | 10.97545 | 17810 ft | 263 kts | 94° |
| 2026-04-22 23:10 | 9.50391 | 10.99395 | 17810 ft | 263 kts | 94° |
| 2026-04-22 23:10 | 9.50150 | 11.01207 | 17805 ft | 263 kts | 99° |
| 2026-04-22 23:11 | 9.49830 | 11.03030 | 17805 ft | 263 kts | 99° |
| 2026-04-22 23:11 | 9.49516 | 11.04859 | 17805 ft | 263 kts | 99° |
| 2026-04-22 23:11 | 9.49209 | 11.06687 | 17802 ft | 262 kts | 99° |
| 2026-04-22 23:11 | 9.48901 | 11.08508 | 17806 ft | 262 kts | 99° |
| 2026-04-22 23:12 | 9.48591 | 11.10326 | 17807 ft | 262 kts | 99° |
| 2026-04-22 23:12 | 9.48282 | 11.12145 | 17807 ft | 262 kts | 99° |
| 2026-04-22 23:12 | 9.47973 | 11.13968 | 17806 ft | 263 kts | 99° |
| 2026-04-22 23:12 | 9.47663 | 11.15795 | 17807 ft | 263 kts | 99° |
| 2026-04-22 23:13 | 9.47351 | 11.17621 | 17804 ft | 263 kts | 99° |
| 2026-04-22 23:13 | 9.47045 | 11.19420 | 17801 ft | 262 kts | 99° |
| 2026-04-22 23:13 | 9.46734 | 11.21245 | 17801 ft | 262 kts | 99° |
| 2026-04-22 23:13 | 9.46425 | 11.23064 | 17803 ft | 262 kts | 99° |
| 2026-04-22 23:14 | 9.46114 | 11.24889 | 17805 ft | 262 kts | 99° |
| 2026-04-22 23:14 | 9.45804 | 11.26707 | 17801 ft | 262 kts | 99° |
| 2026-04-22 23:14 | 9.45498 | 11.28503 | 17805 ft | 262 kts | 99° |
| 2026-04-22 23:14 | 9.45188 | 11.30322 | 17805 ft | 262 kts | 99° |
| 2026-04-22 23:15 | 9.44878 | 11.32142 | 17802 ft | 262 kts | 99° |
| 2026-04-22 23:15 | 9.44568 | 11.33962 | 17805 ft | 262 kts | 99° |
| 2026-04-22 23:15 | 9.44258 | 11.35781 | 17806 ft | 262 kts | 99° |
| 2026-04-22 23:15 | 9.43946 | 11.37601 | 17804 ft | 262 kts | 99° |
| 2026-04-22 23:16 | 9.43635 | 11.39421 | 17803 ft | 263 kts | 99° |
| 2026-04-22 23:16 | 9.43325 | 11.41244 | 17805 ft | 263 kts | 99° |
| 2026-04-22 23:16 | 9.43013 | 11.43069 | 17802 ft | 263 kts | 99° |
| 2026-04-22 23:16 | 9.42700 | 11.44894 | 17800 ft | 263 kts | 99° |
| 2026-04-22 23:17 | 9.42388 | 11.46727 | 17798 ft | 263 kts | 99° |
| 2026-04-22 23:17 | 9.42076 | 11.48551 | 17797 ft | 263 kts | 99° |
| 2026-04-22 23:17 | 9.41763 | 11.50376 | 17799 ft | 263 kts | 99° |
| 2026-04-22 23:17 | 9.41450 | 11.52205 | 17793 ft | 263 kts | 99° |
| 2026-04-22 23:18 | 9.41138 | 11.54029 | 17798 ft | 263 kts | 99° |
| 2026-04-22 23:18 | 9.40829 | 11.55831 | 17796 ft | 263 kts | 99° |
| 2026-04-22 23:18 | 9.40517 | 11.57655 | 17794 ft | 263 kts | 99° |
| 2026-04-22 23:18 | 9.40204 | 11.59483 | 17798 ft | 264 kts | 99° |
| 2026-04-22 23:19 | 9.39892 | 11.61298 | 17800 ft | 263 kts | 99° |
| 2026-04-22 23:19 | 9.39580 | 11.63127 | 17792 ft | 263 kts | 99° |
| 2026-04-22 23:19 | 9.39265 | 11.64961 | 17794 ft | 264 kts | 99° |
| 2026-04-22 23:19 | 9.38950 | 11.66794 | 17794 ft | 264 kts | 99° |
| 2026-04-22 23:20 | 9.38636 | 11.68630 | 17790 ft | 264 kts | 99° |
| 2026-04-22 23:20 | 9.38326 | 11.70435 | 17788 ft | 263 kts | 99° |
| 2026-04-22 23:20 | 9.38011 | 11.72266 | 17789 ft | 264 kts | 99° |
| 2026-04-22 23:20 | 9.37697 | 11.74088 | 17792 ft | 264 kts | 99° |
| 2026-04-22 23:21 | 9.37386 | 11.75902 | 17791 ft | 264 kts | 99° |
| 2026-04-22 23:21 | 9.37070 | 11.77740 | 17785 ft | 264 kts | 99° |
| 2026-04-22 23:21 | 9.36756 | 11.79569 | 17789 ft | 264 kts | 99° |
| 2026-04-22 23:21 | 9.36631 | 11.81418 | 17785 ft | 264 kts | 88° |
| 2026-04-22 23:22 | 9.36732 | 11.83270 | 17779 ft | 263 kts | 88° |
| 2026-04-22 23:22 | 9.36643 | 11.85124 | 17781 ft | 264 kts | 97° |
| 2026-04-22 23:22 | 9.36340 | 11.86952 | 17776 ft | 263 kts | 96° |
| 2026-04-22 23:22 | 9.36315 | 11.88810 | 17778 ft | 264 kts | 88° |
| 2026-04-22 23:23 | 9.36407 | 11.90670 | 17777 ft | 264 kts | 88° |
| 2026-04-22 23:23 | 9.36425 | 11.92527 | 17779 ft | 264 kts | 91° |
| 2026-04-22 23:23 | 9.36358 | 11.94387 | 17778 ft | 264 kts | 92° |
| 2026-04-22 23:23 | 9.36297 | 11.96228 | 17777 ft | 265 kts | 91° |
| 2026-04-22 23:24 | 9.36262 | 11.98119 | 17777 ft | 265 kts | 91° |
| 2026-04-22 23:24 | 9.36229 | 11.99961 | 17779 ft | 265 kts | 91° |
| 2026-04-22 23:24 | 9.36187 | 12.01836 | 17781 ft | 265 kts | 91° |
| 2026-04-22 23:24 | 9.36145 | 12.03708 | 17781 ft | 266 kts | 91° |
| 2026-04-22 23:25 | 9.36103 | 12.05584 | 17779 ft | 266 kts | 91° |
| 2026-04-22 23:25 | 9.36063 | 12.07455 | 17776 ft | 266 kts | 91° |
| 2026-04-22 23:25 | 9.36023 | 12.09303 | 17776 ft | 266 kts | 91° |
| 2026-04-22 23:25 | 9.35981 | 12.11204 | 17379 ft | 275 kts | 91° |
| 2026-04-22 23:26 | 9.35938 | 12.13159 | 16912 ft | 280 kts | 91° |
| 2026-04-22 23:26 | 9.35894 | 12.15125 | 16449 ft | 280 kts | 91° |
| 2026-04-22 23:26 | 9.35849 | 12.17097 | 15992 ft | 279 kts | 90° |
| 2026-04-22 23:26 | 9.35806 | 12.19056 | 15542 ft | 276 kts | 90° |
| 2026-04-22 23:27 | 9.35762 | 12.21006 | 15094 ft | 276 kts | 90° |
| 2026-04-22 23:27 | 9.35719 | 12.22947 | 14653 ft | 274 kts | 90° |
| 2026-04-22 23:27 | 9.35677 | 12.24873 | 14221 ft | 273 kts | 90° |
| 2026-04-22 23:27 | 9.35635 | 12.26789 | 13797 ft | 271 kts | 89° |
| 2026-04-22 23:28 | 9.35591 | 12.28691 | 13187 ft | 270 kts | 89° |
| 2026-04-22 23:28 | 9.35550 | 12.30586 | 12582 ft | 271 kts | 88° |
| 2026-04-22 23:28 | 9.35911 | 12.32436 | 11970 ft | 268 kts | 64° |
| 2026-04-22 23:28 | 9.37045 | 12.33914 | 11385 ft | 267 kts | 42° |
| 2026-04-22 23:29 | 9.38484 | 12.35087 | 10834 ft | 264 kts | 37° |
| 2026-04-22 23:29 | 9.39967 | 12.36133 | 10279 ft | 258 kts | 30° |
| 2026-04-22 23:29 | 9.41623 | 12.36896 | 9731 ft | 259 kts | 22° |
| 2026-04-22 23:29 | 9.43248 | 12.37527 | 9129 ft | 240 kts | 21° |
| 2026-04-22 23:30 | 9.44853 | 12.38135 | 8548 ft | 253 kts | 21° |
| 2026-04-22 23:30 | 9.46498 | 12.38762 | 7971 ft | 237 kts | 21° |
| 2026-04-22 23:30 | 9.48040 | 12.39374 | 7396 ft | 247 kts | 25° |
| 2026-04-22 23:30 | 9.49372 | 12.40512 | 6837 ft | 258 kts | 53° |
| 2026-04-22 23:31 | 9.50008 | 12.42187 | 6291 ft | 262 kts | 82° |
| 2026-04-22 23:31 | 9.49777 | 12.44011 | 5706 ft | 264 kts | 109° |
| 2026-04-22 23:31 | 9.48717 | 12.45514 | 5140 ft | 265 kts | 139° |
| 2026-04-22 23:31 | 9.47081 | 12.46336 | 4576 ft | 264 kts | 168° |
| 2026-04-22 23:32 | 9.45279 | 12.46448 | 4012 ft | 253 kts | 183° |
| 2026-04-22 23:32 | 9.43535 | 12.46372 | 3451 ft | 250 kts | 185° |
| 2026-04-22 23:32 | 9.41893 | 12.46293 | 2886 ft | 228 kts | 185° |
| 2026-04-22 23:32 | 9.40391 | 12.46171 | 2331 ft | 205 kts | 195° |
| 2026-04-22 23:33 | 9.39068 | 12.45654 | 2388 ft | 186 kts | 219° |
| 2026-04-22 23:33 | 9.38396 | 12.44707 | 2450 ft | 152 kts | 249° |
| 2026-04-22 23:33 | 9.38014 | 12.43717 | 2491 ft | 146 kts | 249° |
| 2026-04-22 23:33 | 9.37642 | 12.42749 | 2475 ft | 148 kts | 250° |
| 2026-04-22 23:34 | 9.37014 | 12.41977 | 2475 ft | 148 kts | 210° |
| 2026-04-22 23:34 | 9.36061 | 12.41624 | 2461 ft | 132 kts | 201° |
| 2026-04-22 23:34 | 9.35228 | 12.41634 | 2184 ft | 111 kts | 176° |
| 2026-04-22 23:34 | 9.34471 | 12.41769 | 1995 ft | 111 kts | 177° |
| 2026-04-22 23:35 | 9.33671 | 12.41884 | 1923 ft | 116 kts | 179° |
| 2026-04-22 23:35 | 9.32883 | 12.41978 | 1732 ft | 112 kts | 179° |
| 2026-04-22 23:35 | 9.32115 | 12.42071 | 1579 ft | 111 kts | 175° |
| 2026-04-22 23:35 | 9.31359 | 12.42207 | 1443 ft | 108 kts | 171° |
| 2026-04-22 23:36 | 9.30612 | 12.42312 | 1301 ft | 107 kts | 175° |
| 2026-04-22 23:36 | 9.29866 | 12.42385 | 1140 ft | 108 kts | 175° |
| 2026-04-22 23:36 | 9.29113 | 12.42491 | 939 ft | 109 kts | 172° |
| 2026-04-22 23:36 | 9.28371 | 12.42610 | 790 ft | 106 kts | 171° |
| 2026-04-22 23:37 | 9.27648 | 12.42718 | 670 ft | 104 kts | 170° |
| 2026-04-22 23:37 | 9.26947 | 12.42839 | 598 ft | 100 kts | 171° |
| 2026-04-22 23:37 | 9.26388 | 12.42934 | 591 ft | 41 kts | 170° |
| 2026-04-22 23:37 | 9.26337 | 12.42944 | 591 ft | 10 kts | 4° |
| 2026-04-22 23:38 | 9.26492 | 12.42915 | 591 ft | 31 kts | 344° |
| 2026-04-22 23:38 | 9.26531 | 12.42768 | 592 ft | 23 kts | 261° |
| 2026-04-22 23:38 | 9.26669 | 12.42689 | 588 ft | 27 kts | 348° |
| 2026-04-22 23:38 | 9.26788 | 12.42639 | 584 ft | 11 kts | 225° |
| 2026-04-22 23:39 | 9.26775 | 12.42638 | 584 ft | 0 kts | 169° |
| 2026-04-22 23:57 | 9.26772 | 12.42645 | 583 ft | 3 kts | 69° |
| 2026-04-22 23:58 | 9.26804 | 12.42713 | 586 ft | 19 kts | 73° |
| 2026-04-22 23:58 | 9.26772 | 12.42869 | 587 ft | 31 kts | 168° |
| 2026-04-22 23:58 | 9.26473 | 12.42922 | 586 ft | 64 kts | 170° |
| 2026-04-22 23:58 | 9.25880 | 12.43021 | 591 ft | 106 kts | 171° |
| 2026-04-22 23:59 | 9.25065 | 12.43151 | 707 ft | 128 kts | 172° |
| 2026-04-22 23:59 | 9.24155 | 12.43212 | 1099 ft | 133 kts | 192° |
| 2026-04-22 23:59 | 9.23312 | 12.42870 | 1595 ft | 128 kts | 209° |
| 2026-04-22 23:59 | 9.22838 | 12.42206 | 2016 ft | 125 kts | 265° |
| 2026-04-23 00:00 | 9.23489 | 12.40979 | 2817 ft | 123 kts | 288° |